Aérodrome :
LOGIN :

S'inscrire | Disclaimer

   EN    FR    IT 

 










Légende :    VFR   VFR Marginal   IFR   IFR Intensif   IFR Très Intensif
Visi : 
Plafond : 
>= 8 km
>= 3000ft
5 à 8 km
1000 à 3000 ft
1500m à 5 km
500 à 1000 ft
800 à 1500m
200 à 500 ft
< 800m
< 200 ft
Symboles :   Orages  Brouillard  Fortes neiges  Fortes précipitations  Vent > 20 kt
SIGMETs :   Divers  Orages  Givrage  Turbulence  Onde Orograph.  Cendres Volcan.






- Altitude de l'aérodrome : 184 ft
- Code IATA : BRU


EBBR - Bruxelles

DERNIER METAR :
  • 150050Z VRB01KT 2100 BR FEW008 BKN011 19/18 Q1015 NOSIG

METARs EXPIRÉS :
  • 150020Z 00000KT 3500 BR SCT008 BKN013 19/18 Q1015 NOSIG
  • 142350Z 21002KT 3500 BR BKN013 19/18 Q1015 NOSIG
  • 142320Z 22003KT 3900 BR NSC 19/18 Q1015 NOSIG
  • 142250Z 20001KT 3900 BR NSC 19/18 Q1015 NOSIG

TAF TAF EBBR
Valide du 15 à 00h jusqu'au 16 à 06h UTC


142310Z 1500/1606 VRB03KT 6000 FEW040
TEMPO 1500/1507 2500 BR
PROB30
TEMPO 1511/1521 VRB20G35KT 2500 SHRA TSRAGR SCT030CB
TEMPO 1600/1606 2500 BR



MET'MAP, la Météo Aéronautique d'un coup d'oeil ! - Copyright ORBIFLY Décembre 2007 - Disclaimer

ORBIFLY MET'MAP TEAM :

Programmation & Développement : Alexandra Zaïnal
Sur une idée originale de : Baudouin d'Aumeries
Assistance à la programmation : Marc-Olivier Méhu
Soutien technique & logistique : Manuel Goepfert

Contact : metmap@orbifly.com




SOURCES & CREDITS :

   NOAA